sensor_id;sensor_type;location;lat;lon;timestamp;temperature;humidity
43581;DHT22;29175;51.030;4.606;2024-01-27T00:00:27;4.30;99.90
43581;DHT22;29175;51.030;4.606;2024-01-27T00:02:53;4.30;99.90
43581;DHT22;29175;51.030;4.606;2024-01-27T00:05:19;4.20;99.90
43581;DHT22;29175;51.030;4.606;2024-01-27T00:07:45;4.20;99.90
43581;DHT22;29175;51.030;4.606;2024-01-27T00:10:10;4.10;99.90
43581;DHT22;29175;51.030;4.606;2024-01-27T00:12:36;4.10;99.90
43581;DHT22;29175;51.030;4.606;2024-01-27T00:15:03;4.00;99.90
43581;DHT22;29175;51.030;4.606;2024-01-27T00:17:29;4.10;99.90
43581;DHT22;29175;51.030;4.606;2024-01-27T00:19:55;4.00;99.90
43581;DHT22;29175;51.030;4.606;2024-01-27T00:22:21;4.10;99.90
43581;DHT22;29175;51.030;4.606;2024-01-27T00:24:46;4.10;99.90
43581;DHT22;29175;51.030;4.606;2024-01-27T00:27:14;4.00;99.90
43581;DHT22;29175;51.030;4.606;2024-01-27T00:29:41;4.10;99.90
43581;DHT22;29175;51.030;4.606;2024-01-27T00:32:06;4.00;99.90
43581;DHT22;29175;51.030;4.606;2024-01-27T00:34:33;4.00;99.90
43581;DHT22;29175;51.030;4.606;2024-01-27T00:36:58;4.00;99.90
43581;DHT22;29175;51.030;4.606;2024-01-27T00:39:24;4.00;99.90
43581;DHT22;29175;51.030;4.606;2024-01-27T00:41:51;4.00;99.90
43581;DHT22;29175;51.030;4.606;2024-01-27T00:44:16;3.90;99.90
43581;DHT22;29175;51.030;4.606;2024-01-27T00:46:42;4.00;99.90
43581;DHT22;29175;51.030;4.606;2024-01-27T00:49:08;4.00;99.90
43581;DHT22;29175;51.030;4.606;2024-01-27T00:51:33;4.10;99.90
43581;DHT22;29175;51.030;4.606;2024-01-27T00:53:59;3.80;99.90
43581;DHT22;29175;51.030;4.606;2024-01-27T00:56:26;4.10;99.90
43581;DHT22;29175;51.030;4.606;2024-01-27T00:58:51;4.00;99.90
43581;DHT22;29175;51.030;4.606;2024-01-27T01:01:17;4.00;99.90
43581;DHT22;29175;51.030;4.606;2024-01-27T01:03:44;4.00;99.90
43581;DHT22;29175;51.030;4.606;2024-01-27T01:06:10;3.80;99.90
43581;DHT22;29175;51.030;4.606;2024-01-27T01:08:36;3.90;99.90
43581;DHT22;29175;51.030;4.606;2024-01-27T01:11:02;4.00;99.90
43581;DHT22;29175;51.030;4.606;2024-01-27T01:13:29;3.60;99.90
43581;DHT22;29175;51.030;4.606;2024-01-27T01:15:54;3.60;99.90
43581;DHT22;29175;51.030;4.606;2024-01-27T01:18:20;3.70;99.90
43581;DHT22;29175;51.030;4.606;2024-01-27T01:20:45;3.60;99.90
43581;DHT22;29175;51.030;4.606;2024-01-27T01:23:11;3.50;99.90
43581;DHT22;29175;51.030;4.606;2024-01-27T01:25:37;3.40;99.90
43581;DHT22;29175;51.030;4.606;2024-01-27T01:28:02;3.20;99.90
43581;DHT22;29175;51.030;4.606;2024-01-27T01:30:28;3.40;99.90
43581;DHT22;29175;51.030;4.606;2024-01-27T01:32:54;3.40;99.90
43581;DHT22;29175;51.030;4.606;2024-01-27T01:35:20;3.40;99.90
43581;DHT22;29175;51.030;4.606;2024-01-27T01:37:45;3.50;99.90
43581;DHT22;29175;51.030;4.606;2024-01-27T01:40:13;3.60;99.90
43581;DHT22;29175;51.030;4.606;2024-01-27T01:42:40;3.60;99.90
43581;DHT22;29175;51.030;4.606;2024-01-27T01:45:06;3.50;99.90
43581;DHT22;29175;51.030;4.606;2024-01-27T01:47:32;3.40;99.90
43581;DHT22;29175;51.030;4.606;2024-01-27T01:50:00;3.30;99.90
43581;DHT22;29175;51.030;4.606;2024-01-27T01:52:25;3.40;99.90
43581;DHT22;29175;51.030;4.606;2024-01-27T01:54:51;3.40;99.90
43581;DHT22;29175;51.030;4.606;2024-01-27T01:57:18;3.30;99.90
43581;DHT22;29175;51.030;4.606;2024-01-27T01:59:43;3.40;99.90
43581;DHT22;29175;51.030;4.606;2024-01-27T02:02:11;3.30;99.90
43581;DHT22;29175;51.030;4.606;2024-01-27T02:04:41;3.30;99.90
43581;DHT22;29175;51.030;4.606;2024-01-27T02:07:06;3.30;99.90
43581;DHT22;29175;51.030;4.606;2024-01-27T02:09:32;3.30;99.90
43581;DHT22;29175;51.030;4.606;2024-01-27T02:11:58;3.30;99.90
43581;DHT22;29175;51.030;4.606;2024-01-27T02:14:23;3.30;99.90
43581;DHT22;29175;51.030;4.606;2024-01-27T02:16:50;2.80;99.90
43581;DHT22;29175;51.030;4.606;2024-01-27T02:19:16;2.80;99.90
43581;DHT22;29175;51.030;4.606;2024-01-27T02:21:42;3.00;99.90
43581;DHT22;29175;51.030;4.606;2024-01-27T02:24:07;3.10;99.90
43581;DHT22;29175;51.030;4.606;2024-01-27T02:26:33;3.10;99.90
43581;DHT22;29175;51.030;4.606;2024-01-27T02:28:58;2.80;99.90
43581;DHT22;29175;51.030;4.606;2024-01-27T02:31:24;2.90;99.90
43581;DHT22;29175;51.030;4.606;2024-01-27T02:33:51;2.90;99.90
43581;DHT22;29175;51.030;4.606;2024-01-27T02:36:17;2.90;99.90
43581;DHT22;29175;51.030;4.606;2024-01-27T02:38:43;2.90;99.90
43581;DHT22;29175;51.030;4.606;2024-01-27T02:41:12;2.90;99.90
43581;DHT22;29175;51.030;4.606;2024-01-27T02:43:37;2.90;99.90
43581;DHT22;29175;51.030;4.606;2024-01-27T02:46:06;2.60;99.90
43581;DHT22;29175;51.030;4.606;2024-01-27T02:48:33;2.50;99.90
43581;DHT22;29175;51.030;4.606;2024-01-27T02:51:01;2.60;99.90
43581;DHT22;29175;51.030;4.606;2024-01-27T02:53:27;2.50;99.90
43581;DHT22;29175;51.030;4.606;2024-01-27T02:55:52;2.40;99.90
43581;DHT22;29175;51.030;4.606;2024-01-27T02:58:18;2.50;99.90
43581;DHT22;29175;51.030;4.606;2024-01-27T03:00:44;2.60;99.90
43581;DHT22;29175;51.030;4.606;2024-01-27T03:03:10;2.60;99.90
43581;DHT22;29175;51.030;4.606;2024-01-27T03:05:36;2.70;99.90
43581;DHT22;29175;51.030;4.606;2024-01-27T03:08:01;2.70;99.90
43581;DHT22;29175;51.030;4.606;2024-01-27T03:10:28;2.70;99.90
43581;DHT22;29175;51.030;4.606;2024-01-27T03:12:54;2.70;99.90
43581;DHT22;29175;51.030;4.606;2024-01-27T03:15:20;2.70;99.90
43581;DHT22;29175;51.030;4.606;2024-01-27T03:17:46;2.70;99.90
43581;DHT22;29175;51.030;4.606;2024-01-27T03:20:13;2.60;99.90
43581;DHT22;29175;51.030;4.606;2024-01-27T03:22:39;2.50;99.90
43581;DHT22;29175;51.030;4.606;2024-01-27T03:25:07;2.40;99.90
43581;DHT22;29175;51.030;4.606;2024-01-27T03:27:33;2.40;99.90
43581;DHT22;29175;51.030;4.606;2024-01-27T03:30:00;2.40;99.90
43581;DHT22;29175;51.030;4.606;2024-01-27T03:32:26;2.40;99.90
43581;DHT22;29175;51.030;4.606;2024-01-27T03:34:51;2.40;99.90
43581;DHT22;29175;51.030;4.606;2024-01-27T03:37:17;2.40;99.90
43581;DHT22;29175;51.030;4.606;2024-01-27T03:39:43;2.50;99.90
43581;DHT22;29175;51.030;4.606;2024-01-27T03:42:08;2.40;99.90
43581;DHT22;29175;51.030;4.606;2024-01-27T03:44:35;2.30;99.90
43581;DHT22;29175;51.030;4.606;2024-01-27T03:47:01;2.30;99.90
43581;DHT22;29175;51.030;4.606;2024-01-27T03:49:27;2.00;99.90
43581;DHT22;29175;51.030;4.606;2024-01-27T03:51:53;2.00;99.90
43581;DHT22;29175;51.030;4.606;2024-01-27T03:54:18;2.00;99.90
43581;DHT22;29175;51.030;4.606;2024-01-27T03:56:44;1.60;99.90
43581;DHT22;29175;51.030;4.606;2024-01-27T03:59:10;1.80;99.90
43581;DHT22;29175;51.030;4.606;2024-01-27T04:01:36;1.50;99.90
43581;DHT22;29175;51.030;4.606;2024-01-27T04:04:02;1.60;99.90
43581;DHT22;29175;51.030;4.606;2024-01-27T04:06:28;1.70;99.90
43581;DHT22;29175;51.030;4.606;2024-01-27T04:08:53;1.60;99.90
43581;DHT22;29175;51.030;4.606;2024-01-27T04:11:19;1.60;99.90
43581;DHT22;29175;51.030;4.606;2024-01-27T04:13:46;1.60;99.90
43581;DHT22;29175;51.030;4.606;2024-01-27T04:16:12;1.50;99.90
43581;DHT22;29175;51.030;4.606;2024-01-27T04:18:38;1.40;99.90
43581;DHT22;29175;51.030;4.606;2024-01-27T04:21:04;1.40;99.90
43581;DHT22;29175;51.030;4.606;2024-01-27T04:23:30;1.70;99.90
43581;DHT22;29175;51.030;4.606;2024-01-27T04:25:56;1.70;99.90
43581;DHT22;29175;51.030;4.606;2024-01-27T04:28:23;1.70;99.90
43581;DHT22;29175;51.030;4.606;2024-01-27T04:30:49;1.60;99.90
43581;DHT22;29175;51.030;4.606;2024-01-27T04:33:14;1.80;99.90
43581;DHT22;29175;51.030;4.606;2024-01-27T04:35:40;1.90;99.90
43581;DHT22;29175;51.030;4.606;2024-01-27T04:38:07;1.70;99.90
43581;DHT22;29175;51.030;4.606;2024-01-27T04:40:33;1.50;99.90
43581;DHT22;29175;51.030;4.606;2024-01-27T04:43:01;1.50;99.90
43581;DHT22;29175;51.030;4.606;2024-01-27T04:45:28;1.50;99.90
43581;DHT22;29175;51.030;4.606;2024-01-27T04:47:54;1.40;99.90
43581;DHT22;29175;51.030;4.606;2024-01-27T04:50:21;1.10;99.90
43581;DHT22;29175;51.030;4.606;2024-01-27T04:52:47;0.90;99.90
43581;DHT22;29175;51.030;4.606;2024-01-27T04:55:13;0.80;99.90
43581;DHT22;29175;51.030;4.606;2024-01-27T04:57:38;0.60;99.90
43581;DHT22;29175;51.030;4.606;2024-01-27T05:00:04;0.90;99.90
43581;DHT22;29175;51.030;4.606;2024-01-27T05:02:32;1.00;99.90
43581;DHT22;29175;51.030;4.606;2024-01-27T05:04:58;1.10;99.90
43581;DHT22;29175;51.030;4.606;2024-01-27T05:07:24;1.10;99.90
43581;DHT22;29175;51.030;4.606;2024-01-27T05:09:50;0.90;99.90
43581;DHT22;29175;51.030;4.606;2024-01-27T05:12:15;1.10;99.90
43581;DHT22;29175;51.030;4.606;2024-01-27T05:14:44;1.20;99.90
43581;DHT22;29175;51.030;4.606;2024-01-27T05:17:12;1.40;99.90
43581;DHT22;29175;51.030;4.606;2024-01-27T05:19:38;1.50;99.90
43581;DHT22;29175;51.030;4.606;2024-01-27T05:22:04;1.40;99.90
43581;DHT22;29175;51.030;4.606;2024-01-27T05:24:30;1.20;99.90
43581;DHT22;29175;51.030;4.606;2024-01-27T05:26:56;1.30;99.90
43581;DHT22;29175;51.030;4.606;2024-01-27T05:29:22;1.30;99.90
43581;DHT22;29175;51.030;4.606;2024-01-27T05:31:47;1.50;99.90
43581;DHT22;29175;51.030;4.606;2024-01-27T05:34:15;1.50;99.90
43581;DHT22;29175;51.030;4.606;2024-01-27T05:36:40;1.60;99.90
43581;DHT22;29175;51.030;4.606;2024-01-27T05:39:08;1.60;99.90
43581;DHT22;29175;51.030;4.606;2024-01-27T05:41:34;1.50;99.90
43581;DHT22;29175;51.030;4.606;2024-01-27T05:44:00;1.60;99.90
43581;DHT22;29175;51.030;4.606;2024-01-27T05:46:26;1.50;99.90
43581;DHT22;29175;51.030;4.606;2024-01-27T05:48:52;1.50;99.90
43581;DHT22;29175;51.030;4.606;2024-01-27T05:51:25;1.50;99.90
43581;DHT22;29175;51.030;4.606;2024-01-27T05:53:51;1.50;99.90
43581;DHT22;29175;51.030;4.606;2024-01-27T05:56:16;1.60;99.90
43581;DHT22;29175;51.030;4.606;2024-01-27T05:58:46;1.60;99.90
43581;DHT22;29175;51.030;4.606;2024-01-27T06:01:12;1.70;99.90
43581;DHT22;29175;51.030;4.606;2024-01-27T06:03:40;1.60;99.90
43581;DHT22;29175;51.030;4.606;2024-01-27T06:06:06;1.60;99.90
43581;DHT22;29175;51.030;4.606;2024-01-27T06:08:31;1.60;99.90
43581;DHT22;29175;51.030;4.606;2024-01-27T06:10:57;1.60;99.90
43581;DHT22;29175;51.030;4.606;2024-01-27T06:13:24;1.60;99.90
43581;DHT22;29175;51.030;4.606;2024-01-27T06:15:50;1.50;99.90
43581;DHT22;29175;51.030;4.606;2024-01-27T06:18:16;1.50;99.90
43581;DHT22;29175;51.030;4.606;2024-01-27T06:20:41;1.40;99.90
43581;DHT22;29175;51.030;4.606;2024-01-27T06:23:08;1.50;99.90
43581;DHT22;29175;51.030;4.606;2024-01-27T06:25:34;1.50;99.90
43581;DHT22;29175;51.030;4.606;2024-01-27T06:27:59;1.50;99.90
43581;DHT22;29175;51.030;4.606;2024-01-27T06:30:25;1.50;99.90
43581;DHT22;29175;51.030;4.606;2024-01-27T06:32:51;1.50;99.90
43581;DHT22;29175;51.030;4.606;2024-01-27T06:35:17;1.20;99.90
43581;DHT22;29175;51.030;4.606;2024-01-27T06:37:42;1.20;99.90
43581;DHT22;29175;51.030;4.606;2024-01-27T06:40:08;1.30;99.90
43581;DHT22;29175;51.030;4.606;2024-01-27T06:42:37;1.20;99.90
43581;DHT22;29175;51.030;4.606;2024-01-27T06:45:05;1.30;99.90
43581;DHT22;29175;51.030;4.606;2024-01-27T06:47:31;1.30;99.90
43581;DHT22;29175;51.030;4.606;2024-01-27T06:49:56;1.30;99.90
43581;DHT22;29175;51.030;4.606;2024-01-27T06:52:22;1.40;99.90
43581;DHT22;29175;51.030;4.606;2024-01-27T06:54:48;1.20;99.90
43581;DHT22;29175;51.030;4.606;2024-01-27T06:57:20;1.20;99.90
43581;DHT22;29175;51.030;4.606;2024-01-27T06:59:50;1.30;99.90
43581;DHT22;29175;51.030;4.606;2024-01-27T07:02:28;1.30;99.90
43581;DHT22;29175;51.030;4.606;2024-01-27T07:04:54;1.30;99.90
43581;DHT22;29175;51.030;4.606;2024-01-27T07:07:21;1.30;99.90
43581;DHT22;29175;51.030;4.606;2024-01-27T07:09:48;1.40;99.90
43581;DHT22;29175;51.030;4.606;2024-01-27T07:12:16;1.40;99.90
43581;DHT22;29175;51.030;4.606;2024-01-27T07:14:42;1.30;99.90
43581;DHT22;29175;51.030;4.606;2024-01-27T07:17:07;1.30;99.90
43581;DHT22;29175;51.030;4.606;2024-01-27T07:19:33;1.20;99.90
43581;DHT22;29175;51.030;4.606;2024-01-27T07:21:59;1.20;99.90
43581;DHT22;29175;51.030;4.606;2024-01-27T07:24:30;1.30;99.90
43581;DHT22;29175;51.030;4.606;2024-01-27T07:26:55;1.30;99.90
43581;DHT22;29175;51.030;4.606;2024-01-27T07:29:21;1.30;99.90
43581;DHT22;29175;51.030;4.606;2024-01-27T07:31:47;1.20;99.90
43581;DHT22;29175;51.030;4.606;2024-01-27T07:34:13;1.10;99.90
43581;DHT22;29175;51.030;4.606;2024-01-27T07:36:38;1.00;99.90
43581;DHT22;29175;51.030;4.606;2024-01-27T07:39:05;1.10;99.90
43581;DHT22;29175;51.030;4.606;2024-01-27T07:41:31;1.10;99.90
43581;DHT22;29175;51.030;4.606;2024-01-27T07:44:06;1.20;99.90
43581;DHT22;29175;51.030;4.606;2024-01-27T07:46:32;1.20;99.90
43581;DHT22;29175;51.030;4.606;2024-01-27T07:48:57;1.30;99.90
43581;DHT22;29175;51.030;4.606;2024-01-27T07:51:23;1.30;99.90
43581;DHT22;29175;51.030;4.606;2024-01-27T07:53:49;1.40;99.90
43581;DHT22;29175;51.030;4.606;2024-01-27T07:56:15;1.40;99.90
43581;DHT22;29175;51.030;4.606;2024-01-27T07:58:41;1.40;99.90
43581;DHT22;29175;51.030;4.606;2024-01-27T08:01:07;1.40;99.90
43581;DHT22;29175;51.030;4.606;2024-01-27T08:03:33;1.50;99.90
43581;DHT22;29175;51.030;4.606;2024-01-27T08:05:59;1.30;99.90
43581;DHT22;29175;51.030;4.606;2024-01-27T08:08:24;1.40;99.90
43581;DHT22;29175;51.030;4.606;2024-01-27T08:10:50;1.50;99.90
43581;DHT22;29175;51.030;4.606;2024-01-27T08:13:16;1.50;99.90
43581;DHT22;29175;51.030;4.606;2024-01-27T08:15:42;1.70;99.90
43581;DHT22;29175;51.030;4.606;2024-01-27T08:18:08;1.80;99.90
43581;DHT22;29175;51.030;4.606;2024-01-27T08:20:34;2.00;99.90
43581;DHT22;29175;51.030;4.606;2024-01-27T08:23:00;2.10;99.90
43581;DHT22;29175;51.030;4.606;2024-01-27T08:25:25;2.20;99.90
43581;DHT22;29175;51.030;4.606;2024-01-27T08:27:52;2.20;99.90
43581;DHT22;29175;51.030;4.606;2024-01-27T08:30:18;2.30;99.90
43581;DHT22;29175;51.030;4.606;2024-01-27T08:32:44;2.30;99.90
43581;DHT22;29175;51.030;4.606;2024-01-27T08:35:10;2.30;99.90
43581;DHT22;29175;51.030;4.606;2024-01-27T08:37:35;2.30;99.90
43581;DHT22;29175;51.030;4.606;2024-01-27T08:40:05;2.40;99.90
43581;DHT22;29175;51.030;4.606;2024-01-27T08:42:31;2.50;99.90
43581;DHT22;29175;51.030;4.606;2024-01-27T08:44:59;2.60;99.90
43581;DHT22;29175;51.030;4.606;2024-01-27T08:47:25;2.50;99.90
43581;DHT22;29175;51.030;4.606;2024-01-27T08:49:50;2.40;99.90
43581;DHT22;29175;51.030;4.606;2024-01-27T08:52:17;2.70;99.90
43581;DHT22;29175;51.030;4.606;2024-01-27T08:54:43;2.80;99.90
43581;DHT22;29175;51.030;4.606;2024-01-27T08:57:08;3.00;99.90
43581;DHT22;29175;51.030;4.606;2024-01-27T08:59:34;3.10;99.90
43581;DHT22;29175;51.030;4.606;2024-01-27T09:02:02;2.90;99.90
43581;DHT22;29175;51.030;4.606;2024-01-27T09:04:29;2.80;99.90
43581;DHT22;29175;51.030;4.606;2024-01-27T09:06:54;3.00;99.90
43581;DHT22;29175;51.030;4.606;2024-01-27T09:09:21;3.10;99.90
43581;DHT22;29175;51.030;4.606;2024-01-27T09:11:47;3.40;99.90
43581;DHT22;29175;51.030;4.606;2024-01-27T09:14:13;3.90;99.90
43581;DHT22;29175;51.030;4.606;2024-01-27T09:16:39;4.10;99.90
43581;DHT22;29175;51.030;4.606;2024-01-27T09:19:05;4.00;99.90
43581;DHT22;29175;51.030;4.606;2024-01-27T09:21:32;4.00;99.90
43581;DHT22;29175;51.030;4.606;2024-01-27T09:23:58;4.00;99.90
43581;DHT22;29175;51.030;4.606;2024-01-27T09:26:23;3.70;99.90
43581;DHT22;29175;51.030;4.606;2024-01-27T09:28:49;3.60;99.90
43581;DHT22;29175;51.030;4.606;2024-01-27T09:31:24;3.60;99.90
43581;DHT22;29175;51.030;4.606;2024-01-27T09:33:51;3.80;99.90
43581;DHT22;29175;51.030;4.606;2024-01-27T09:36:20;3.90;99.90
43581;DHT22;29175;51.030;4.606;2024-01-27T09:38:46;4.00;99.90
43581;DHT22;29175;51.030;4.606;2024-01-27T09:41:13;4.10;99.90
43581;DHT22;29175;51.030;4.606;2024-01-27T09:43:42;4.20;99.90
43581;DHT22;29175;51.030;4.606;2024-01-27T09:46:14;4.30;99.90
43581;DHT22;29175;51.030;4.606;2024-01-27T09:48:39;4.50;99.90
43581;DHT22;29175;51.030;4.606;2024-01-27T09:51:07;4.70;99.90
43581;DHT22;29175;51.030;4.606;2024-01-27T09:53:33;4.80;99.90
43581;DHT22;29175;51.030;4.606;2024-01-27T09:55:58;5.00;99.90
43581;DHT22;29175;51.030;4.606;2024-01-27T09:58:25;5.10;99.90
43581;DHT22;29175;51.030;4.606;2024-01-27T10:00:53;5.10;99.90
43581;DHT22;29175;51.030;4.606;2024-01-27T10:03:22;5.10;99.90
43581;DHT22;29175;51.030;4.606;2024-01-27T10:05:49;5.00;99.90
43581;DHT22;29175;51.030;4.606;2024-01-27T10:08:15;5.00;99.90
43581;DHT22;29175;51.030;4.606;2024-01-27T10:10:40;5.10;99.90
43581;DHT22;29175;51.030;4.606;2024-01-27T10:13:06;5.30;99.90
43581;DHT22;29175;51.030;4.606;2024-01-27T10:15:32;5.30;99.90
43581;DHT22;29175;51.030;4.606;2024-01-27T10:18:04;5.20;99.90
43581;DHT22;29175;51.030;4.606;2024-01-27T10:20:29;5.50;99.90
43581;DHT22;29175;51.030;4.606;2024-01-27T10:22:55;5.60;99.90
43581;DHT22;29175;51.030;4.606;2024-01-27T10:25:21;5.80;99.90
43581;DHT22;29175;51.030;4.606;2024-01-27T10:27:46;5.90;99.90
43581;DHT22;29175;51.030;4.606;2024-01-27T10:30:16;6.20;99.90
43581;DHT22;29175;51.030;4.606;2024-01-27T10:32:54;6.60;99.90
43581;DHT22;29175;51.030;4.606;2024-01-27T10:35:20;7.00;99.90
43581;DHT22;29175;51.030;4.606;2024-01-27T10:37:45;7.50;99.90
43581;DHT22;29175;51.030;4.606;2024-01-27T10:40:11;8.00;99.90
43581;DHT22;29175;51.030;4.606;2024-01-27T10:42:39;8.40;99.90
43581;DHT22;29175;51.030;4.606;2024-01-27T10:45:05;8.20;99.90
43581;DHT22;29175;51.030;4.606;2024-01-27T10:47:31;8.20;99.90
43581;DHT22;29175;51.030;4.606;2024-01-27T10:49:59;8.20;99.90
43581;DHT22;29175;51.030;4.606;2024-01-27T10:52:25;8.50;99.90
43581;DHT22;29175;51.030;4.606;2024-01-27T10:55:00;8.80;99.90
43581;DHT22;29175;51.030;4.606;2024-01-27T10:57:26;8.90;99.90
43581;DHT22;29175;51.030;4.606;2024-01-27T10:59:56;8.90;99.90
43581;DHT22;29175;51.030;4.606;2024-01-27T11:02:24;9.00;99.90
43581;DHT22;29175;51.030;4.606;2024-01-27T11:04:50;8.90;99.90
43581;DHT22;29175;51.030;4.606;2024-01-27T11:07:19;9.20;99.90
43581;DHT22;29175;51.030;4.606;2024-01-27T11:09:46;9.80;99.90
43581;DHT22;29175;51.030;4.606;2024-01-27T11:12:13;10.50;99.90
43581;DHT22;29175;51.030;4.606;2024-01-27T11:14:38;11.20;99.90
43581;DHT22;29175;51.030;4.606;2024-01-27T11:17:06;11.70;99.90
43581;DHT22;29175;51.030;4.606;2024-01-27T11:19:32;12.40;99.90
43581;DHT22;29175;51.030;4.606;2024-01-27T11:22:02;12.60;99.90
43581;DHT22;29175;51.030;4.606;2024-01-27T11:24:28;13.10;99.90
43581;DHT22;29175;51.030;4.606;2024-01-27T11:27:00;13.10;99.90
43581;DHT22;29175;51.030;4.606;2024-01-27T11:29:26;12.60;99.90
43581;DHT22;29175;51.030;4.606;2024-01-27T11:31:54;12.00;99.90
43581;DHT22;29175;51.030;4.606;2024-01-27T11:34:19;11.40;99.90
43581;DHT22;29175;51.030;4.606;2024-01-27T11:36:45;11.30;99.90
43581;DHT22;29175;51.030;4.606;2024-01-27T11:39:24;11.20;99.90
43581;DHT22;29175;51.030;4.606;2024-01-27T11:41:50;11.10;99.90
43581;DHT22;29175;51.030;4.606;2024-01-27T11:44:16;10.70;99.90
43581;DHT22;29175;51.030;4.606;2024-01-27T11:46:47;11.00;99.90
43581;DHT22;29175;51.030;4.606;2024-01-27T11:49:14;11.20;99.90
43581;DHT22;29175;51.030;4.606;2024-01-27T11:51:40;11.20;99.90
43581;DHT22;29175;51.030;4.606;2024-01-27T11:54:06;10.90;99.90
43581;DHT22;29175;51.030;4.606;2024-01-27T11:56:32;10.80;99.90
43581;DHT22;29175;51.030;4.606;2024-01-27T11:58:59;11.00;99.90
43581;DHT22;29175;51.030;4.606;2024-01-27T12:01:24;11.60;99.90
43581;DHT22;29175;51.030;4.606;2024-01-27T12:03:50;11.60;99.90
43581;DHT22;29175;51.030;4.606;2024-01-27T12:06:17;11.30;99.90
43581;DHT22;29175;51.030;4.606;2024-01-27T12:08:42;10.40;99.90
43581;DHT22;29175;51.030;4.606;2024-01-27T12:11:14;9.70;99.90
43581;DHT22;29175;51.030;4.606;2024-01-27T12:13:42;9.30;99.90
43581;DHT22;29175;51.030;4.606;2024-01-27T12:16:07;9.10;99.90
43581;DHT22;29175;51.030;4.606;2024-01-27T12:18:34;8.90;99.90
43581;DHT22;29175;51.030;4.606;2024-01-27T12:21:00;8.90;99.90
43581;DHT22;29175;51.030;4.606;2024-01-27T12:23:26;8.90;99.90
43581;DHT22;29175;51.030;4.606;2024-01-27T12:25:52;9.10;99.90
43581;DHT22;29175;51.030;4.606;2024-01-27T12:28:19;9.40;99.90
43581;DHT22;29175;51.030;4.606;2024-01-27T12:30:45;9.50;99.90
43581;DHT22;29175;51.030;4.606;2024-01-27T12:33:13;9.40;99.90
43581;DHT22;29175;51.030;4.606;2024-01-27T12:35:39;9.60;99.90
43581;DHT22;29175;51.030;4.606;2024-01-27T12:38:07;9.70;99.90
43581;DHT22;29175;51.030;4.606;2024-01-27T12:40:33;9.90;99.90
43581;DHT22;29175;51.030;4.606;2024-01-27T12:42:58;10.00;99.90
43581;DHT22;29175;51.030;4.606;2024-01-27T12:45:25;9.70;99.90
43581;DHT22;29175;51.030;4.606;2024-01-27T12:47:51;9.50;99.90
43581;DHT22;29175;51.030;4.606;2024-01-27T12:50:16;9.20;99.90
43581;DHT22;29175;51.030;4.606;2024-01-27T12:52:42;9.20;99.90
43581;DHT22;29175;51.030;4.606;2024-01-27T12:55:09;8.90;99.90
43581;DHT22;29175;51.030;4.606;2024-01-27T12:57:35;8.70;99.90
43581;DHT22;29175;51.030;4.606;2024-01-27T13:00:01;8.70;99.90
43581;DHT22;29175;51.030;4.606;2024-01-27T13:02:29;8.60;99.90
43581;DHT22;29175;51.030;4.606;2024-01-27T13:04:55;8.40;99.90
43581;DHT22;29175;51.030;4.606;2024-01-27T13:07:20;8.40;99.90
43581;DHT22;29175;51.030;4.606;2024-01-27T13:09:46;8.40;99.90
43581;DHT22;29175;51.030;4.606;2024-01-27T13:12:11;8.40;99.90
43581;DHT22;29175;51.030;4.606;2024-01-27T13:14:37;8.30;99.90
43581;DHT22;29175;51.030;4.606;2024-01-27T13:17:03;8.50;99.90
43581;DHT22;29175;51.030;4.606;2024-01-27T13:19:29;8.50;99.90
43581;DHT22;29175;51.030;4.606;2024-01-27T13:21:56;8.60;99.90
43581;DHT22;29175;51.030;4.606;2024-01-27T13:24:21;8.50;99.90
43581;DHT22;29175;51.030;4.606;2024-01-27T13:26:48;8.50;99.90
43581;DHT22;29175;51.030;4.606;2024-01-27T13:29:14;8.50;99.90
43581;DHT22;29175;51.030;4.606;2024-01-27T13:31:40;8.50;99.90
43581;DHT22;29175;51.030;4.606;2024-01-27T13:34:06;8.60;99.90
43581;DHT22;29175;51.030;4.606;2024-01-27T13:36:31;8.80;99.90
43581;DHT22;29175;51.030;4.606;2024-01-27T13:38:57;8.70;99.90
43581;DHT22;29175;51.030;4.606;2024-01-27T13:41:23;9.00;99.90
43581;DHT22;29175;51.030;4.606;2024-01-27T13:43:50;9.10;99.90
43581;DHT22;29175;51.030;4.606;2024-01-27T13:46:16;9.00;99.90
43581;DHT22;29175;51.030;4.606;2024-01-27T13:48:42;9.20;99.90
43581;DHT22;29175;51.030;4.606;2024-01-27T13:51:08;9.30;99.90
43581;DHT22;29175;51.030;4.606;2024-01-27T13:53:35;9.40;99.90
43581;DHT22;29175;51.030;4.606;2024-01-27T13:56:00;9.60;99.90
43581;DHT22;29175;51.030;4.606;2024-01-27T13:58:27;9.50;99.90
43581;DHT22;29175;51.030;4.606;2024-01-27T14:00:53;9.60;99.90
43581;DHT22;29175;51.030;4.606;2024-01-27T14:03:18;9.60;99.90
43581;DHT22;29175;51.030;4.606;2024-01-27T14:05:44;9.40;99.90
43581;DHT22;29175;51.030;4.606;2024-01-27T14:08:11;9.50;99.90
43581;DHT22;29175;51.030;4.606;2024-01-27T14:10:37;9.70;99.90
43581;DHT22;29175;51.030;4.606;2024-01-27T14:13:04;9.70;99.90
43581;DHT22;29175;51.030;4.606;2024-01-27T14:15:37;9.80;99.90
43581;DHT22;29175;51.030;4.606;2024-01-27T14:18:03;9.80;99.90
43581;DHT22;29175;51.030;4.606;2024-01-27T14:20:31;9.90;99.90
43581;DHT22;29175;51.030;4.606;2024-01-27T14:22:59;9.90;99.90
43581;DHT22;29175;51.030;4.606;2024-01-27T14:25:24;10.00;99.90
43581;DHT22;29175;51.030;4.606;2024-01-27T14:27:50;10.10;99.90
43581;DHT22;29175;51.030;4.606;2024-01-27T14:30:15;9.90;99.90
43581;DHT22;29175;51.030;4.606;2024-01-27T14:32:42;10.00;99.90
43581;DHT22;29175;51.030;4.606;2024-01-27T14:35:09;9.90;99.90
43581;DHT22;29175;51.030;4.606;2024-01-27T14:37:35;9.90;99.90
43581;DHT22;29175;51.030;4.606;2024-01-27T14:40:00;10.10;99.90
43581;DHT22;29175;51.030;4.606;2024-01-27T14:42:26;10.10;99.90
43581;DHT22;29175;51.030;4.606;2024-01-27T14:44:51;10.20;99.90
43581;DHT22;29175;51.030;4.606;2024-01-27T14:47:20;10.10;99.90
43581;DHT22;29175;51.030;4.606;2024-01-27T14:49:46;9.90;99.90
43581;DHT22;29175;51.030;4.606;2024-01-27T14:52:12;9.90;99.90
43581;DHT22;29175;51.030;4.606;2024-01-27T14:54:38;9.80;99.90
43581;DHT22;29175;51.030;4.606;2024-01-27T14:57:07;9.80;99.90
43581;DHT22;29175;51.030;4.606;2024-01-27T14:59:35;9.80;99.90
43581;DHT22;29175;51.030;4.606;2024-01-27T15:02:04;9.70;99.90
43581;DHT22;29175;51.030;4.606;2024-01-27T15:04:30;9.70;99.90
43581;DHT22;29175;51.030;4.606;2024-01-27T15:06:56;9.60;99.90
43581;DHT22;29175;51.030;4.606;2024-01-27T15:09:22;9.70;99.90
43581;DHT22;29175;51.030;4.606;2024-01-27T15:11:51;9.60;99.90
43581;DHT22;29175;51.030;4.606;2024-01-27T15:14:17;9.60;99.90
43581;DHT22;29175;51.030;4.606;2024-01-27T15:16:43;9.60;99.90
43581;DHT22;29175;51.030;4.606;2024-01-27T15:19:10;9.50;99.90
43581;DHT22;29175;51.030;4.606;2024-01-27T15:21:36;9.50;99.90
43581;DHT22;29175;51.030;4.606;2024-01-27T15:24:01;9.30;99.90
43581;DHT22;29175;51.030;4.606;2024-01-27T15:26:27;9.20;99.90
43581;DHT22;29175;51.030;4.606;2024-01-27T15:28:53;9.30;99.90
43581;DHT22;29175;51.030;4.606;2024-01-27T15:31:18;9.20;99.90
43581;DHT22;29175;51.030;4.606;2024-01-27T15:33:44;9.20;99.90
43581;DHT22;29175;51.030;4.606;2024-01-27T15:36:10;9.10;99.90
43581;DHT22;29175;51.030;4.606;2024-01-27T15:38:36;9.00;99.90